Egg Harbor City, New Jersey
Current Conditions -  °F | °C
As of 11:54 AM on Sunday 23 Nov 2014 (Local Time) from KACY Reporting Station
Clear Clear  
Wind Chill: 53°   Ceiling: Unl
Heat Index: 53°   Visibility: 10mi
Dew Point: 27°   Wind: 13mph
Humidity: 37%   Direction: 220°SW
Pressure: 30.19"   Gusts: NA
Location:  39.53°N, 74.65°W
Report Text: KACY 231654Z 22011KT 10SM CLR 12/M03 A3019 RMK AO2 SLP223 T01171028
Loading
Personal Weather Stations






























Interactive Weather Map New forecast layout! Learn more

10-Day Weather Forecast

Advertisements
Track Severe Weather on mobile